sensor_id;sensor_type;location;lat;lon;timestamp;temperature;humidity
14349;DHT22;7258;50.376;8.742;2023-04-23T00:02:08;12.80;99.90
14349;DHT22;7258;50.376;8.742;2023-04-23T00:04:21;12.80;99.90
14349;DHT22;7258;50.376;8.742;2023-04-23T00:06:27;12.80;99.90
14349;DHT22;7258;50.376;8.742;2023-04-23T00:08:43;12.80;99.90
14349;DHT22;7258;50.376;8.742;2023-04-23T00:10:52;12.70;99.90
14349;DHT22;7258;50.376;8.742;2023-04-23T00:12:57;12.70;99.90
14349;DHT22;7258;50.376;8.742;2023-04-23T00:15:05;12.70;99.90
14349;DHT22;7258;50.376;8.742;2023-04-23T00:17:19;12.70;99.90
14349;DHT22;7258;50.376;8.742;2023-04-23T00:19:25;12.70;99.90
14349;DHT22;7258;50.376;8.742;2023-04-23T00:21:40;12.70;99.90
14349;DHT22;7258;50.376;8.742;2023-04-23T00:23:50;12.70;99.90
14349;DHT22;7258;50.376;8.742;2023-04-23T00:25:56;12.70;99.90
14349;DHT22;7258;50.376;8.742;2023-04-23T00:28:05;12.70;99.90
14349;DHT22;7258;50.376;8.742;2023-04-23T00:30:21;12.70;99.90
14349;DHT22;7258;50.376;8.742;2023-04-23T00:32:27;12.70;99.90
14349;DHT22;7258;50.376;8.742;2023-04-23T00:34:31;12.60;99.90
14349;DHT22;7258;50.376;8.742;2023-04-23T00:36:36;12.60;99.90
14349;DHT22;7258;50.376;8.742;2023-04-23T00:38:41;12.60;99.90
14349;DHT22;7258;50.376;8.742;2023-04-23T00:40:45;12.60;99.90
14349;DHT22;7258;50.376;8.742;2023-04-23T00:42:51;12.50;99.90
14349;DHT22;7258;50.376;8.742;2023-04-23T00:45:04;12.50;99.90
14349;DHT22;7258;50.376;8.742;2023-04-23T00:47:11;12.50;99.90
14349;DHT22;7258;50.376;8.742;2023-04-23T00:49:24;12.50;99.90
14349;DHT22;7258;50.376;8.742;2023-04-23T00:51:33;12.40;99.90
14349;DHT22;7258;50.376;8.742;2023-04-23T00:53:37;12.40;99.90
14349;DHT22;7258;50.376;8.742;2023-04-23T00:55:44;12.40;99.90
14349;DHT22;7258;50.376;8.742;2023-04-23T00:57:52;12.40;99.90
14349;DHT22;7258;50.376;8.742;2023-04-23T00:59:59;12.40;99.90
14349;DHT22;7258;50.376;8.742;2023-04-23T01:02:15;12.40;99.90
14349;DHT22;7258;50.376;8.742;2023-04-23T01:04:23;12.40;99.90
14349;DHT22;7258;50.376;8.742;2023-04-23T01:06:30;12.40;99.90
14349;DHT22;7258;50.376;8.742;2023-04-23T01:08:37;12.30;99.90
14349;DHT22;7258;50.376;8.742;2023-04-23T01:10:44;12.30;99.90
14349;DHT22;7258;50.376;8.742;2023-04-23T01:12:49;12.30;99.90
14349;DHT22;7258;50.376;8.742;2023-04-23T01:14:57;12.30;99.90
14349;DHT22;7258;50.376;8.742;2023-04-23T01:17:04;12.40;99.90
14349;DHT22;7258;50.376;8.742;2023-04-23T01:19:12;12.30;99.90
14349;DHT22;7258;50.376;8.742;2023-04-23T01:21:22;12.30;99.90
14349;DHT22;7258;50.376;8.742;2023-04-23T01:23:30;12.30;99.90
14349;DHT22;7258;50.376;8.742;2023-04-23T01:25:36;12.30;99.90
14349;DHT22;7258;50.376;8.742;2023-04-23T01:27:44;12.30;99.90
14349;DHT22;7258;50.376;8.742;2023-04-23T01:29:48;12.30;99.90
14349;DHT22;7258;50.376;8.742;2023-04-23T01:31:55;12.30;99.90
14349;DHT22;7258;50.376;8.742;2023-04-23T01:33:59;12.30;99.90
14349;DHT22;7258;50.376;8.742;2023-04-23T01:36:02;12.20;99.90
14349;DHT22;7258;50.376;8.742;2023-04-23T01:38:09;12.20;99.90
14349;DHT22;7258;50.376;8.742;2023-04-23T01:40:13;12.20;99.90
14349;DHT22;7258;50.376;8.742;2023-04-23T01:42:17;12.20;99.90
14349;DHT22;7258;50.376;8.742;2023-04-23T01:44:20;12.20;99.90
14349;DHT22;7258;50.376;8.742;2023-04-23T01:46:23;12.20;99.90
14349;DHT22;7258;50.376;8.742;2023-04-23T01:48:27;12.20;99.90
14349;DHT22;7258;50.376;8.742;2023-04-23T01:50:31;12.20;99.90
14349;DHT22;7258;50.376;8.742;2023-04-23T01:52:34;12.20;99.90
14349;DHT22;7258;50.376;8.742;2023-04-23T01:54:37;12.20;99.90
14349;DHT22;7258;50.376;8.742;2023-04-23T01:56:41;12.20;99.90
14349;DHT22;7258;50.376;8.742;2023-04-23T01:58:44;12.20;99.90
14349;DHT22;7258;50.376;8.742;2023-04-23T02:00:48;12.20;99.90
14349;DHT22;7258;50.376;8.742;2023-04-23T02:02:51;12.20;99.90
14349;DHT22;7258;50.376;8.742;2023-04-23T02:04:55;12.20;99.90
14349;DHT22;7258;50.376;8.742;2023-04-23T02:06:59;12.20;99.90
14349;DHT22;7258;50.376;8.742;2023-04-23T02:09:02;12.10;99.90
14349;DHT22;7258;50.376;8.742;2023-04-23T02:11:06;12.10;99.90
14349;DHT22;7258;50.376;8.742;2023-04-23T02:13:10;12.10;99.90
14349;DHT22;7258;50.376;8.742;2023-04-23T02:15:14;12.10;99.90
14349;DHT22;7258;50.376;8.742;2023-04-23T02:17:19;12.10;99.90
14349;DHT22;7258;50.376;8.742;2023-04-23T02:19:23;12.10;99.90
14349;DHT22;7258;50.376;8.742;2023-04-23T02:21:27;12.10;99.90
14349;DHT22;7258;50.376;8.742;2023-04-23T02:23:30;12.10;99.90
14349;DHT22;7258;50.376;8.742;2023-04-23T02:25:33;12.00;99.90
14349;DHT22;7258;50.376;8.742;2023-04-23T02:27:39;12.00;99.90
14349;DHT22;7258;50.376;8.742;2023-04-23T02:29:43;12.00;99.90
14349;DHT22;7258;50.376;8.742;2023-04-23T02:31:46;12.00;99.90
14349;DHT22;7258;50.376;8.742;2023-04-23T02:33:50;12.00;99.90
14349;DHT22;7258;50.376;8.742;2023-04-23T02:35:53;12.00;99.90
14349;DHT22;7258;50.376;8.742;2023-04-23T02:37:56;11.90;99.90
14349;DHT22;7258;50.376;8.742;2023-04-23T02:39:59;11.90;99.90
14349;DHT22;7258;50.376;8.742;2023-04-23T02:42:02;12.00;99.90
14349;DHT22;7258;50.376;8.742;2023-04-23T02:44:05;11.90;99.90
14349;DHT22;7258;50.376;8.742;2023-04-23T02:46:10;11.90;99.90
14349;DHT22;7258;50.376;8.742;2023-04-23T02:48:13;11.90;99.90
14349;DHT22;7258;50.376;8.742;2023-04-23T02:50:16;11.90;99.90
14349;DHT22;7258;50.376;8.742;2023-04-23T02:52:19;11.90;99.90
14349;DHT22;7258;50.376;8.742;2023-04-23T02:54:22;11.90;99.90
14349;DHT22;7258;50.376;8.742;2023-04-23T02:56:25;11.90;99.90
14349;DHT22;7258;50.376;8.742;2023-04-23T02:58:29;11.90;99.90
14349;DHT22;7258;50.376;8.742;2023-04-23T03:00:32;11.90;99.90
14349;DHT22;7258;50.376;8.742;2023-04-23T03:02:37;11.90;99.90
14349;DHT22;7258;50.376;8.742;2023-04-23T03:04:40;11.90;99.90
14349;DHT22;7258;50.376;8.742;2023-04-23T03:06:44;11.90;99.90
14349;DHT22;7258;50.376;8.742;2023-04-23T03:08:47;11.90;99.90
14349;DHT22;7258;50.376;8.742;2023-04-23T03:10:50;11.90;99.90
14349;DHT22;7258;50.376;8.742;2023-04-23T03:12:53;11.90;99.90
14349;DHT22;7258;50.376;8.742;2023-04-23T03:14:57;11.90;99.90
14349;DHT22;7258;50.376;8.742;2023-04-23T03:17:00;11.90;99.90
14349;DHT22;7258;50.376;8.742;2023-04-23T03:19:05;11.90;99.90
14349;DHT22;7258;50.376;8.742;2023-04-23T03:21:08;11.80;99.90
14349;DHT22;7258;50.376;8.742;2023-04-23T03:23:11;11.80;99.90
14349;DHT22;7258;50.376;8.742;2023-04-23T03:25:17;11.80;99.90
14349;DHT22;7258;50.376;8.742;2023-04-23T03:27:21;11.80;99.90
14349;DHT22;7258;50.376;8.742;2023-04-23T03:29:24;11.80;99.90
14349;DHT22;7258;50.376;8.742;2023-04-23T03:31:29;11.80;99.90
14349;DHT22;7258;50.376;8.742;2023-04-23T03:33:35;11.80;99.90
14349;DHT22;7258;50.376;8.742;2023-04-23T03:35:42;11.80;99.90
14349;DHT22;7258;50.376;8.742;2023-04-23T03:37:45;11.70;99.90
14349;DHT22;7258;50.376;8.742;2023-04-23T03:39:49;11.80;99.90
14349;DHT22;7258;50.376;8.742;2023-04-23T03:41:52;11.70;99.90
14349;DHT22;7258;50.376;8.742;2023-04-23T03:43:55;11.70;99.90
14349;DHT22;7258;50.376;8.742;2023-04-23T03:45:58;11.80;99.90
14349;DHT22;7258;50.376;8.742;2023-04-23T03:48:04;11.80;99.90
14349;DHT22;7258;50.376;8.742;2023-04-23T03:50:10;11.70;99.90
14349;DHT22;7258;50.376;8.742;2023-04-23T03:52:16;11.80;99.90
14349;DHT22;7258;50.376;8.742;2023-04-23T03:54:19;11.70;99.90
14349;DHT22;7258;50.376;8.742;2023-04-23T03:56:24;11.70;99.90
14349;DHT22;7258;50.376;8.742;2023-04-23T03:58:29;11.70;99.90
14349;DHT22;7258;50.376;8.742;2023-04-23T04:00:33;11.70;99.90
14349;DHT22;7258;50.376;8.742;2023-04-23T04:02:37;11.70;99.90
14349;DHT22;7258;50.376;8.742;2023-04-23T04:04:44;11.70;99.90
14349;DHT22;7258;50.376;8.742;2023-04-23T04:06:50;11.70;99.90
14349;DHT22;7258;50.376;8.742;2023-04-23T04:08:54;11.70;99.90
14349;DHT22;7258;50.376;8.742;2023-04-23T04:10:58;11.70;99.90
14349;DHT22;7258;50.376;8.742;2023-04-23T04:13:07;11.70;99.90
14349;DHT22;7258;50.376;8.742;2023-04-23T04:15:15;11.60;99.90
14349;DHT22;7258;50.376;8.742;2023-04-23T04:17:22;11.60;99.90
14349;DHT22;7258;50.376;8.742;2023-04-23T04:19:25;11.60;99.90
14349;DHT22;7258;50.376;8.742;2023-04-23T04:21:30;11.60;99.90
14349;DHT22;7258;50.376;8.742;2023-04-23T04:23:35;11.60;99.90
14349;DHT22;7258;50.376;8.742;2023-04-23T04:25:40;11.50;99.90
14349;DHT22;7258;50.376;8.742;2023-04-23T04:27:43;11.50;99.90
14349;DHT22;7258;50.376;8.742;2023-04-23T04:29:50;11.50;99.90
14349;DHT22;7258;50.376;8.742;2023-04-23T04:31:54;11.50;99.90
14349;DHT22;7258;50.376;8.742;2023-04-23T04:34:03;11.50;99.90
14349;DHT22;7258;50.376;8.742;2023-04-23T04:36:09;11.40;99.90
14349;DHT22;7258;50.376;8.742;2023-04-23T04:38:14;11.40;99.90
14349;DHT22;7258;50.376;8.742;2023-04-23T04:40:19;11.40;99.90
14349;DHT22;7258;50.376;8.742;2023-04-23T04:42:24;11.30;99.90
14349;DHT22;7258;50.376;8.742;2023-04-23T04:44:29;11.30;99.90
14349;DHT22;7258;50.376;8.742;2023-04-23T04:46:33;11.30;99.90
14349;DHT22;7258;50.376;8.742;2023-04-23T04:48:41;11.30;99.90
14349;DHT22;7258;50.376;8.742;2023-04-23T04:50:44;11.30;99.90
14349;DHT22;7258;50.376;8.742;2023-04-23T04:52:50;11.20;99.90
14349;DHT22;7258;50.376;8.742;2023-04-23T04:54:54;11.20;99.90
14349;DHT22;7258;50.376;8.742;2023-04-23T04:56:57;11.20;99.90
14349;DHT22;7258;50.376;8.742;2023-04-23T04:59:03;11.20;99.90
14349;DHT22;7258;50.376;8.742;2023-04-23T05:01:07;11.30;99.90
14349;DHT22;7258;50.376;8.742;2023-04-23T05:03:11;11.30;99.90
14349;DHT22;7258;50.376;8.742;2023-04-23T05:05:15;11.40;99.90
14349;DHT22;7258;50.376;8.742;2023-04-23T05:07:19;11.40;99.90
14349;DHT22;7258;50.376;8.742;2023-04-23T05:09:24;11.50;99.90
14349;DHT22;7258;50.376;8.742;2023-04-23T05:11:28;11.50;99.90
14349;DHT22;7258;50.376;8.742;2023-04-23T05:13:31;11.60;99.90
14349;DHT22;7258;50.376;8.742;2023-04-23T05:15:36;11.70;99.90
14349;DHT22;7258;50.376;8.742;2023-04-23T05:17:41;11.70;99.90
14349;DHT22;7258;50.376;8.742;2023-04-23T05:19:47;11.70;99.90
14349;DHT22;7258;50.376;8.742;2023-04-23T05:21:51;11.70;99.90
14349;DHT22;7258;50.376;8.742;2023-04-23T05:23:57;11.80;99.90
14349;DHT22;7258;50.376;8.742;2023-04-23T05:26:05;11.80;99.90
14349;DHT22;7258;50.376;8.742;2023-04-23T05:28:15;11.90;99.90
14349;DHT22;7258;50.376;8.742;2023-04-23T05:30:19;11.90;99.90
14349;DHT22;7258;50.376;8.742;2023-04-23T05:32:25;11.90;99.90
14349;DHT22;7258;50.376;8.742;2023-04-23T05:34:28;12.00;99.90
14349;DHT22;7258;50.376;8.742;2023-04-23T05:36:37;12.00;99.90
14349;DHT22;7258;50.376;8.742;2023-04-23T05:38:40;12.10;99.90
14349;DHT22;7258;50.376;8.742;2023-04-23T05:40:51;12.10;99.90
14349;DHT22;7258;50.376;8.742;2023-04-23T05:42:56;12.10;99.90
14349;DHT22;7258;50.376;8.742;2023-04-23T05:45:03;12.20;99.90
14349;DHT22;7258;50.376;8.742;2023-04-23T05:47:16;12.20;99.90
14349;DHT22;7258;50.376;8.742;2023-04-23T05:49:25;12.20;99.90
14349;DHT22;7258;50.376;8.742;2023-04-23T05:51:28;12.20;99.90
14349;DHT22;7258;50.376;8.742;2023-04-23T05:53:37;12.20;99.90
14349;DHT22;7258;50.376;8.742;2023-04-23T05:55:41;12.20;99.90
14349;DHT22;7258;50.376;8.742;2023-04-23T05:57:48;12.30;99.90
14349;DHT22;7258;50.376;8.742;2023-04-23T05:59:53;12.30;99.90
14349;DHT22;7258;50.376;8.742;2023-04-23T06:02:08;12.40;99.90
14349;DHT22;7258;50.376;8.742;2023-04-23T06:06:53;12.50;99.90
14349;DHT22;7258;50.376;8.742;2023-04-23T06:09:05;12.50;99.90
14349;DHT22;7258;50.376;8.742;2023-04-23T06:11:40;12.50;99.90
14349;DHT22;7258;50.376;8.742;2023-04-23T06:13:49;12.50;99.90
14349;DHT22;7258;50.376;8.742;2023-04-23T06:15:52;12.50;99.90
14349;DHT22;7258;50.376;8.742;2023-04-23T06:17:55;12.50;99.90
14349;DHT22;7258;50.376;8.742;2023-04-23T06:19:59;12.50;99.90
14349;DHT22;7258;50.376;8.742;2023-04-23T06:22:03;12.50;99.90
14349;DHT22;7258;50.376;8.742;2023-04-23T06:24:06;12.50;99.90
14349;DHT22;7258;50.376;8.742;2023-04-23T06:26:09;12.60;99.90
14349;DHT22;7258;50.376;8.742;2023-04-23T06:28:19;12.60;99.90
14349;DHT22;7258;50.376;8.742;2023-04-23T06:30:22;12.70;99.90
14349;DHT22;7258;50.376;8.742;2023-04-23T06:32:30;12.70;99.90
14349;DHT22;7258;50.376;8.742;2023-04-23T06:34:33;12.70;99.90
14349;DHT22;7258;50.376;8.742;2023-04-23T06:36:50;12.60;99.90
14349;DHT22;7258;50.376;8.742;2023-04-23T06:39:03;12.50;99.90
14349;DHT22;7258;50.376;8.742;2023-04-23T06:41:20;12.50;99.90
14349;DHT22;7258;50.376;8.742;2023-04-23T06:44:00;12.60;99.90
14349;DHT22;7258;50.376;8.742;2023-04-23T06:46:18;12.70;99.90
14349;DHT22;7258;50.376;8.742;2023-04-23T06:48:21;12.80;99.90
14349;DHT22;7258;50.376;8.742;2023-04-23T06:50:37;12.90;99.90
14349;DHT22;7258;50.376;8.742;2023-04-23T06:53:01;13.00;99.90
14349;DHT22;7258;50.376;8.742;2023-04-23T06:55:47;13.20;99.90
14349;DHT22;7258;50.376;8.742;2023-04-23T06:57:57;13.40;99.90
14349;DHT22;7258;50.376;8.742;2023-04-23T07:00:15;13.30;99.90
14349;DHT22;7258;50.376;8.742;2023-04-23T07:02:22;13.40;99.90
14349;DHT22;7258;50.376;8.742;2023-04-23T07:04:38;13.40;99.90
14349;DHT22;7258;50.376;8.742;2023-04-23T07:06:49;13.50;99.90
14349;DHT22;7258;50.376;8.742;2023-04-23T07:09:24;13.60;99.90
14349;DHT22;7258;50.376;8.742;2023-04-23T07:11:56;13.70;99.90
14349;DHT22;7258;50.376;8.742;2023-04-23T07:14:05;13.70;99.90
14349;DHT22;7258;50.376;8.742;2023-04-23T07:16:40;13.70;99.90
14349;DHT22;7258;50.376;8.742;2023-04-23T07:19:23;13.80;99.90
14349;DHT22;7258;50.376;8.742;2023-04-23T07:21:43;13.90;99.90
14349;DHT22;7258;50.376;8.742;2023-04-23T07:24:11;14.10;99.90
14349;DHT22;7258;50.376;8.742;2023-04-23T07:27:16;14.20;99.90
14349;DHT22;7258;50.376;8.742;2023-04-23T07:29:34;14.20;99.90
14349;DHT22;7258;50.376;8.742;2023-04-23T07:35:38;14.20;99.90
14349;DHT22;7258;50.376;8.742;2023-04-23T07:37:58;14.40;99.90
14349;DHT22;7258;50.376;8.742;2023-04-23T07:40:26;14.60;99.90
14349;DHT22;7258;50.376;8.742;2023-04-23T07:43:16;14.70;99.90
14349;DHT22;7258;50.376;8.742;2023-04-23T07:46:07;14.90;99.90
14349;DHT22;7258;50.376;8.742;2023-04-23T07:48:16;15.00;99.90
14349;DHT22;7258;50.376;8.742;2023-04-23T07:50:29;15.10;99.90
14349;DHT22;7258;50.376;8.742;2023-04-23T07:53:25;15.20;99.90
14349;DHT22;7258;50.376;8.742;2023-04-23T07:55:46;15.40;99.90
14349;DHT22;7258;50.376;8.742;2023-04-23T08:02:08;15.70;99.90
14349;DHT22;7258;50.376;8.742;2023-04-23T08:04:56;15.90;99.90
14349;DHT22;7258;50.376;8.742;2023-04-23T08:07:00;16.00;99.90
14349;DHT22;7258;50.376;8.742;2023-04-23T08:09:25;16.00;99.90
14349;DHT22;7258;50.376;8.742;2023-04-23T08:11:29;16.00;99.90
14349;DHT22;7258;50.376;8.742;2023-04-23T08:13:32;16.10;99.90
14349;DHT22;7258;50.376;8.742;2023-04-23T08:15:35;16.10;99.90
14349;DHT22;7258;50.376;8.742;2023-04-23T08:17:48;16.10;99.90
14349;DHT22;7258;50.376;8.742;2023-04-23T08:20:03;16.20;99.90
14349;DHT22;7258;50.376;8.742;2023-04-23T08:26:19;16.20;99.90
14349;DHT22;7258;50.376;8.742;2023-04-23T08:28:56;16.30;99.90
14349;DHT22;7258;50.376;8.742;2023-04-23T08:31:46;16.40;99.90
14349;DHT22;7258;50.376;8.742;2023-04-23T08:33:58;16.40;99.90
14349;DHT22;7258;50.376;8.742;2023-04-23T08:36:10;16.50;99.90
14349;DHT22;7258;50.376;8.742;2023-04-23T08:38:50;16.50;99.90
14349;DHT22;7258;50.376;8.742;2023-04-23T08:41:29;16.60;99.90
14349;DHT22;7258;50.376;8.742;2023-04-23T08:43:48;16.70;99.90
14349;DHT22;7258;50.376;8.742;2023-04-23T08:46:13;16.80;99.90
14349;DHT22;7258;50.376;8.742;2023-04-23T08:48:47;16.80;99.90
14349;DHT22;7258;50.376;8.742;2023-04-23T08:51:32;17.00;99.90
14349;DHT22;7258;50.376;8.742;2023-04-23T08:54:07;17.20;99.90
14349;DHT22;7258;50.376;8.742;2023-04-23T08:56:44;17.50;99.90
14349;DHT22;7258;50.376;8.742;2023-04-23T08:59:17;17.80;99.90
14349;DHT22;7258;50.376;8.742;2023-04-23T09:04:46;18.50;99.90
14349;DHT22;7258;50.376;8.742;2023-04-23T09:07:02;18.90;99.90
14349;DHT22;7258;50.376;8.742;2023-04-23T09:09:06;19.00;99.90
14349;DHT22;7258;50.376;8.742;2023-04-23T09:11:10;19.30;99.90
14349;DHT22;7258;50.376;8.742;2023-04-23T09:13:13;19.40;99.90
14349;DHT22;7258;50.376;8.742;2023-04-23T09:15:16;19.40;99.90
14349;DHT22;7258;50.376;8.742;2023-04-23T09:17:20;19.40;99.90
14349;DHT22;7258;50.376;8.742;2023-04-23T09:19:25;19.40;99.90
14349;DHT22;7258;50.376;8.742;2023-04-23T09:21:29;19.50;99.90
14349;DHT22;7258;50.376;8.742;2023-04-23T09:23:33;19.30;99.90
14349;DHT22;7258;50.376;8.742;2023-04-23T09:25:44;19.30;99.90
14349;DHT22;7258;50.376;8.742;2023-04-23T09:27:51;19.50;99.90
14349;DHT22;7258;50.376;8.742;2023-04-23T09:29:56;19.30;99.90
14349;DHT22;7258;50.376;8.742;2023-04-23T09:32:05;19.30;99.90
14349;DHT22;7258;50.376;8.742;2023-04-23T09:34:14;19.40;99.90
14349;DHT22;7258;50.376;8.742;2023-04-23T09:36:20;19.30;99.90
14349;DHT22;7258;50.376;8.742;2023-04-23T09:38:24;19.20;99.90
14349;DHT22;7258;50.376;8.742;2023-04-23T09:40:31;19.10;99.90
14349;DHT22;7258;50.376;8.742;2023-04-23T09:42:49;18.80;99.90
14349;DHT22;7258;50.376;8.742;2023-04-23T09:45:02;18.70;99.90
14349;DHT22;7258;50.376;8.742;2023-04-23T09:47:06;18.60;99.90
14349;DHT22;7258;50.376;8.742;2023-04-23T09:49:13;18.60;99.90
14349;DHT22;7258;50.376;8.742;2023-04-23T09:51:16;18.70;99.90
14349;DHT22;7258;50.376;8.742;2023-04-23T09:53:20;18.60;99.90
14349;DHT22;7258;50.376;8.742;2023-04-23T09:55:31;18.80;99.90
14349;DHT22;7258;50.376;8.742;2023-04-23T09:57:40;18.90;99.90
14349;DHT22;7258;50.376;8.742;2023-04-23T09:59:45;19.00;99.90
14349;DHT22;7258;50.376;8.742;2023-04-23T10:02:12;19.00;99.90
14349;DHT22;7258;50.376;8.742;2023-04-23T10:08:12;19.30;99.90
14349;DHT22;7258;50.376;8.742;2023-04-23T10:11:03;19.60;99.90
14349;DHT22;7258;50.376;8.742;2023-04-23T10:13:37;20.00;99.90
14349;DHT22;7258;50.376;8.742;2023-04-23T10:19:53;20.10;99.90
14349;DHT22;7258;50.376;8.742;2023-04-23T10:22:39;20.10;99.90
14349;DHT22;7258;50.376;8.742;2023-04-23T10:25:34;20.10;99.90
14349;DHT22;7258;50.376;8.742;2023-04-23T10:28:15;19.90;99.90
14349;DHT22;7258;50.376;8.742;2023-04-23T10:33:38;19.60;99.90
14349;DHT22;7258;50.376;8.742;2023-04-23T10:36:11;19.80;99.90
14349;DHT22;7258;50.376;8.742;2023-04-23T10:41:12;19.50;99.90
14349;DHT22;7258;50.376;8.742;2023-04-23T11:01:14;20.10;99.90
14349;DHT22;7258;50.376;8.742;2023-04-23T11:03:53;20.10;99.90
14349;DHT22;7258;50.376;8.742;2023-04-23T11:07:19;20.00;99.90
14349;DHT22;7258;50.376;8.742;2023-04-23T11:33:37;19.40;99.20
14349;DHT22;7258;50.376;8.742;2023-04-23T11:55:33;19.20;99.90
14349;DHT22;7258;50.376;8.742;2023-04-23T11:58:08;19.30;99.90
14349;DHT22;7258;50.376;8.742;2023-04-23T12:00:34;19.50;99.10
14349;DHT22;7258;50.376;8.742;2023-04-23T12:03:02;19.60;99.70
14349;DHT22;7258;50.376;8.742;2023-04-23T12:05:27;19.70;99.40
14349;DHT22;7258;50.376;8.742;2023-04-23T12:13:04;19.80;99.20
14349;DHT22;7258;50.376;8.742;2023-04-23T12:15:22;19.70;99.60
14349;DHT22;7258;50.376;8.742;2023-04-23T12:17:31;19.70;99.90
14349;DHT22;7258;50.376;8.742;2023-04-23T12:23:07;20.10;99.90
14349;DHT22;7258;50.376;8.742;2023-04-23T12:25:34;20.30;99.10
14349;DHT22;7258;50.376;8.742;2023-04-23T12:28:08;20.10;97.60
14349;DHT22;7258;50.376;8.742;2023-04-23T12:34:35;19.60;98.90
14349;DHT22;7258;50.376;8.742;2023-04-23T12:36:55;19.40;98.70
14349;DHT22;7258;50.376;8.742;2023-04-23T12:39:53;19.30;98.40
14349;DHT22;7258;50.376;8.742;2023-04-23T12:42:27;19.30;98.80
14349;DHT22;7258;50.376;8.742;2023-04-23T12:48:21;19.00;99.40
14349;DHT22;7258;50.376;8.742;2023-04-23T12:51:05;19.00;99.90
14349;DHT22;7258;50.376;8.742;2023-04-23T12:53:26;19.50;99.90
14349;DHT22;7258;50.376;8.742;2023-04-23T12:55:46;19.80;99.00
14349;DHT22;7258;50.376;8.742;2023-04-23T12:58:05;19.80;98.10
14349;DHT22;7258;50.376;8.742;2023-04-23T13:00:49;19.80;98.10
14349;DHT22;7258;50.376;8.742;2023-04-23T13:03:22;20.00;98.70
14349;DHT22;7258;50.376;8.742;2023-04-23T13:05:39;20.20;97.90
14349;DHT22;7258;50.376;8.742;2023-04-23T13:08:15;20.40;97.40
14349;DHT22;7258;50.376;8.742;2023-04-23T13:10:22;20.60;98.00
14349;DHT22;7258;50.376;8.742;2023-04-23T13:15:56;20.30;98.10
14349;DHT22;7258;50.376;8.742;2023-04-23T13:18:03;20.10;97.90
14349;DHT22;7258;50.376;8.742;2023-04-23T13:20:31;19.90;98.50
14349;DHT22;7258;50.376;8.742;2023-04-23T13:22:44;19.70;98.70
14349;DHT22;7258;50.376;8.742;2023-04-23T13:25:09;19.60;98.80
14349;DHT22;7258;50.376;8.742;2023-04-23T13:30:21;19.70;98.70
14349;DHT22;7258;50.376;8.742;2023-04-23T13:33:16;19.70;98.70
14349;DHT22;7258;50.376;8.742;2023-04-23T13:36:25;19.70;98.70
14349;DHT22;7258;50.376;8.742;2023-04-23T13:38:59;19.80;98.40
14349;DHT22;7258;50.376;8.742;2023-04-23T13:41:11;19.90;98.70
14349;DHT22;7258;50.376;8.742;2023-04-23T13:44:03;20.00;98.70
14349;DHT22;7258;50.376;8.742;2023-04-23T13:47:09;20.10;97.30
14349;DHT22;7258;50.376;8.742;2023-04-23T13:49:27;20.00;97.50
14349;DHT22;7258;50.376;8.742;2023-04-23T13:52:01;19.80;97.80
14349;DHT22;7258;50.376;8.742;2023-04-23T13:54:18;20.00;97.90
14349;DHT22;7258;50.376;8.742;2023-04-23T13:56:21;20.20;97.40
14349;DHT22;7258;50.376;8.742;2023-04-23T13:58:24;20.50;97.20
14349;DHT22;7258;50.376;8.742;2023-04-23T14:00:58;20.60;97.60
14349;DHT22;7258;50.376;8.742;2023-04-23T14:04:05;20.80;97.00
14349;DHT22;7258;50.376;8.742;2023-04-23T14:17:16;20.50;97.10
14349;DHT22;7258;50.376;8.742;2023-04-23T14:19:19;20.50;97.20
14349;DHT22;7258;50.376;8.742;2023-04-23T14:22:25;20.60;97.20
14349;DHT22;7258;50.376;8.742;2023-04-23T14:25:40;20.80;96.60
14349;DHT22;7258;50.376;8.742;2023-04-23T14:28:28;21.10;96.40
14349;DHT22;7258;50.376;8.742;2023-04-23T14:35:11;21.70;95.80
14349;DHT22;7258;50.376;8.742;2023-04-23T14:37:36;21.80;95.00
14349;DHT22;7258;50.376;8.742;2023-04-23T14:40:19;22.00;95.00
14349;DHT22;7258;50.376;8.742;2023-04-23T14:43:02;22.20;94.30
14349;DHT22;7258;50.376;8.742;2023-04-23T14:45:22;22.00;94.60
14349;DHT22;7258;50.376;8.742;2023-04-23T14:48:37;22.00;93.50
14349;DHT22;7258;50.376;8.742;2023-04-23T14:54:18;21.70;93.50
14349;DHT22;7258;50.376;8.742;2023-04-23T14:56:46;21.80;93.60
14349;DHT22;7258;50.376;8.742;2023-04-23T15:02:58;21.90;93.40
14349;DHT22;7258;50.376;8.742;2023-04-23T15:05:42;22.20;93.40
14349;DHT22;7258;50.376;8.742;2023-04-23T15:08:08;22.20;92.90
14349;DHT22;7258;50.376;8.742;2023-04-23T15:10:17;22.20;92.90
14349;DHT22;7258;50.376;8.742;2023-04-23T15:16:41;21.90;91.20
14349;DHT22;7258;50.376;8.742;2023-04-23T15:23:06;21.40;92.10
14349;DHT22;7258;50.376;8.742;2023-04-23T15:25:53;21.40;91.50
14349;DHT22;7258;50.376;8.742;2023-04-23T15:28:28;21.30;91.40
14349;DHT22;7258;50.376;8.742;2023-04-23T15:30:56;21.20;91.70
14349;DHT22;7258;50.376;8.742;2023-04-23T15:33:46;21.00;91.50
14349;DHT22;7258;50.376;8.742;2023-04-23T15:36:05;20.90;91.50
14349;DHT22;7258;50.376;8.742;2023-04-23T15:39:01;20.80;91.10
14349;DHT22;7258;50.376;8.742;2023-04-23T15:41:04;20.60;91.90
14349;DHT22;7258;50.376;8.742;2023-04-23T15:43:23;20.50;91.70
14349;DHT22;7258;50.376;8.742;2023-04-23T15:45:55;20.50;91.70
14349;DHT22;7258;50.376;8.742;2023-04-23T15:48:14;20.30;91.70
14349;DHT22;7258;50.376;8.742;2023-04-23T15:53:43;20.20;91.50
14349;DHT22;7258;50.376;8.742;2023-04-23T15:56:07;20.10;92.10
14349;DHT22;7258;50.376;8.742;2023-04-23T15:58:24;20.10;92.70
14349;DHT22;7258;50.376;8.742;2023-04-23T16:01:32;20.00;92.40
14349;DHT22;7258;50.376;8.742;2023-04-23T16:03:59;20.00;92.80
14349;DHT22;7258;50.376;8.742;2023-04-23T16:10:06;20.00;92.60
14349;DHT22;7258;50.376;8.742;2023-04-23T16:13:05;20.10;92.90
14349;DHT22;7258;50.376;8.742;2023-04-23T16:15:31;20.10;92.70
14349;DHT22;7258;50.376;8.742;2023-04-23T16:17:57;20.00;92.50
14349;DHT22;7258;50.376;8.742;2023-04-23T16:23:47;19.60;93.50
14349;DHT22;7258;50.376;8.742;2023-04-23T16:26:15;19.40;94.00
14349;DHT22;7258;50.376;8.742;2023-04-23T16:28:58;19.30;94.10
14349;DHT22;7258;50.376;8.742;2023-04-23T16:32:10;19.30;94.10
14349;DHT22;7258;50.376;8.742;2023-04-23T16:35:01;19.10;93.70
14349;DHT22;7258;50.376;8.742;2023-04-23T16:38:19;19.00;94.00
14349;DHT22;7258;50.376;8.742;2023-04-23T16:44:32;18.80;95.00
14349;DHT22;7258;50.376;8.742;2023-04-23T16:50:05;18.70;95.30
14349;DHT22;7258;50.376;8.742;2023-04-23T16:56:05;18.50;95.60
14349;DHT22;7258;50.376;8.742;2023-04-23T17:01:14;18.30;96.10
14349;DHT22;7258;50.376;8.742;2023-04-23T17:04:42;18.20;95.80
14349;DHT22;7258;50.376;8.742;2023-04-23T17:07:02;18.00;96.50
14349;DHT22;7258;50.376;8.742;2023-04-23T17:09:35;17.80;97.80
14349;DHT22;7258;50.376;8.742;2023-04-23T17:11:46;17.10;99.90
14349;DHT22;7258;50.376;8.742;2023-04-23T17:13:54;16.70;99.90
14349;DHT22;7258;50.376;8.742;2023-04-23T17:16:37;16.40;99.90
14349;DHT22;7258;50.376;8.742;2023-04-23T17:18:55;16.00;99.90
14349;DHT22;7258;50.376;8.742;2023-04-23T17:23:41;15.00;99.90
14349;DHT22;7258;50.376;8.742;2023-04-23T17:26:14;14.60;99.90